createdAt,value
2019-04-10T00:00:02.655Z,99.90
2019-04-10T00:06:07.278Z,99.90
2019-04-10T00:12:11.898Z,99.90
2019-04-10T00:18:16.463Z,99.90
2019-04-10T00:24:21.906Z,99.90
2019-04-10T00:30:27.094Z,99.90
2019-04-10T00:36:31.763Z,99.90
2019-04-10T00:42:36.981Z,99.90
2019-04-10T00:48:41.840Z,99.90
2019-04-10T00:54:46.931Z,99.90
2019-04-10T01:00:51.886Z,99.90
2019-04-10T01:06:56.736Z,99.90
2019-04-10T01:13:02.681Z,99.90
2019-04-10T01:19:07.885Z,99.90
2019-04-10T01:25:13.096Z,99.90
2019-04-10T01:31:17.629Z,99.90
2019-04-10T01:37:22.944Z,99.90
2019-04-10T01:43:27.809Z,99.90
2019-04-10T01:49:33.508Z,99.90
2019-04-10T01:55:38.858Z,99.90
2019-04-10T02:01:50.933Z,99.90
2019-04-10T02:08:05.691Z,99.90
2019-04-10T02:14:01.997Z,99.90
2019-04-10T02:20:14.420Z,99.90
2019-04-10T02:26:19.212Z,99.90
2019-04-10T02:32:24.178Z,99.90
2019-04-10T02:38:47.027Z,99.90
2019-04-10T02:44:35.643Z,99.90
2019-04-10T02:50:40.742Z,99.90
2019-04-10T02:56:46.367Z,99.90
2019-04-10T03:02:52.069Z,99.90
2019-04-10T03:09:09.575Z,99.90
2019-04-10T03:15:07.901Z,99.90
2019-04-10T03:21:13.628Z,99.90
2019-04-10T03:27:19.200Z,99.90
2019-04-10T03:33:29.642Z,99.90
2019-04-10T03:39:33.522Z,99.90
2019-04-10T03:45:38.952Z,99.90
2019-04-10T03:51:43.641Z,99.90
2019-04-10T03:57:49.115Z,99.90
2019-04-10T04:03:53.711Z,99.90
2019-04-10T04:09:58.287Z,99.90
2019-04-10T04:16:02.884Z,99.90
2019-04-10T04:22:08.300Z,99.90
2019-04-10T04:28:12.876Z,99.90
2019-04-10T04:34:18.427Z,99.90
2019-04-10T04:40:23.820Z,99.90
2019-04-10T04:46:28.639Z,99.90
2019-04-10T04:52:33.178Z,99.90
2019-04-10T04:58:38.208Z,99.90
2019-04-10T05:04:43.791Z,99.90
2019-04-10T05:10:49.563Z,99.90
2019-04-10T05:16:55.374Z,99.90
2019-04-10T05:23:00.045Z,99.90
2019-04-10T05:29:04.742Z,99.90
2019-04-10T05:35:10.091Z,99.90
2019-04-10T05:41:15.501Z,99.90
2019-04-10T05:47:21.334Z,99.90
2019-04-10T05:53:26.658Z,99.90
2019-04-10T05:59:32.141Z,99.90
2019-04-10T06:05:36.816Z,99.90
2019-04-10T06:11:44.028Z,99.90
2019-04-10T06:17:48.918Z,99.90
2019-04-10T06:23:53.962Z,99.90
2019-04-10T06:29:59.416Z,99.90
2019-04-10T06:36:04.967Z,99.90
2019-04-10T06:42:09.658Z,99.90
2019-04-10T06:48:15.077Z,99.90
2019-04-10T06:54:20.563Z,99.90
2019-04-10T07:00:25.538Z,99.90
2019-04-10T07:06:45.179Z,99.90
2019-04-10T07:12:37.450Z,99.90
2019-04-10T07:18:45.867Z,99.90
2019-04-10T07:24:48.490Z,99.90
2019-04-10T07:30:56.722Z,99.90
2019-04-10T07:37:00.194Z,99.90
2019-04-10T07:43:04.921Z,99.90
2019-04-10T07:49:10.383Z,99.90
2019-04-10T07:55:15.381Z,99.90
2019-04-10T08:01:19.995Z,99.90
2019-04-10T08:07:30.007Z,99.90
2019-04-10T08:13:30.946Z,99.90
2019-04-10T08:19:35.688Z,99.90
2019-04-10T08:25:40.893Z,99.90
2019-04-10T08:31:46.217Z,99.90
2019-04-10T08:37:50.864Z,99.90
2019-04-10T08:43:56.716Z,99.90
2019-04-10T08:50:01.529Z,99.90
2019-04-10T08:56:06.550Z,99.90
2019-04-10T09:02:11.652Z,99.90
2019-04-10T09:08:17.046Z,99.90
2019-04-10T09:14:21.658Z,99.90
2019-04-10T09:20:26.799Z,99.90
2019-04-10T09:26:32.659Z,99.90
2019-04-10T09:32:37.345Z,99.90
2019-04-10T09:38:43.909Z,99.90
2019-04-10T09:44:48.553Z,99.90
2019-04-10T09:50:53.245Z,99.90
2019-04-10T09:56:57.822Z,99.90
2019-04-10T10:03:03.491Z,99.90
2019-04-10T10:09:08.824Z,99.90
2019-04-10T10:15:13.931Z,99.90
2019-04-10T10:21:18.713Z,99.90
2019-04-10T10:27:23.679Z,99.90
2019-04-10T10:33:29.931Z,99.90
2019-04-10T10:39:37.380Z,99.90
2019-04-10T10:45:42.933Z,99.90
2019-04-10T10:51:47.839Z,99.90
2019-04-10T10:57:52.494Z,99.90
2019-04-10T11:03:58.340Z,99.90
2019-04-10T11:10:04.251Z,99.90
2019-04-10T11:16:09.264Z,99.90
2019-04-10T11:22:22.530Z,99.90
2019-04-10T11:28:29.922Z,99.90
2019-04-10T11:34:32.097Z,99.90
2019-04-10T11:40:36.923Z,99.90
2019-04-10T11:46:41.981Z,99.90
2019-04-10T11:52:52.529Z,99.90
2019-04-10T11:58:56.310Z,99.90
2019-04-10T12:05:08.614Z,99.90
2019-04-10T12:11:10.720Z,99.90
2019-04-10T12:17:13.748Z,99.90
2019-04-10T12:23:18.844Z,94.50
2019-04-10T12:29:24.662Z,93.30
2019-04-10T12:35:29.778Z,93.20
2019-04-10T12:41:35.240Z,96.00
2019-04-10T12:47:39.880Z,93.70
2019-04-10T12:53:45.565Z,93.50
2019-04-10T12:59:50.253Z,93.10
2019-04-10T13:05:55.643Z,94.10
2019-04-10T13:12:02.194Z,92.70
2019-04-10T13:18:07.902Z,92.90
2019-04-10T13:24:13.233Z,92.20
2019-04-10T13:30:18.715Z,85.20
2019-04-10T13:36:23.896Z,84.80
2019-04-10T13:42:30.153Z,74.80
2019-04-10T13:48:35.576Z,69.00
2019-04-10T13:54:40.962Z,69.50
2019-04-10T14:00:45.762Z,64.20
2019-04-10T14:06:51.413Z,65.50
2019-04-10T14:12:57.689Z,59.50
2019-04-10T14:19:03.367Z,56.80
2019-04-10T14:25:09.769Z,56.80
2019-04-10T14:31:18.794Z,58.80
2019-04-10T14:37:23.521Z,57.80
2019-04-10T14:43:29.232Z,53.50
2019-04-10T14:49:33.776Z,56.30
2019-04-10T14:55:38.364Z,60.30
2019-04-10T15:01:44.153Z,58.80
2019-04-10T15:07:48.801Z,57.20
2019-04-10T15:13:53.462Z,56.00
2019-04-10T15:19:58.615Z,58.30
2019-04-10T15:26:03.844Z,58.60
2019-04-10T15:32:09.225Z,58.10
2019-04-10T15:38:13.847Z,59.20
2019-04-10T15:44:18.468Z,60.30
2019-04-10T15:50:24.199Z,59.10
2019-04-10T15:56:29.816Z,54.90
2019-04-10T16:02:34.554Z,55.50
2019-04-10T16:08:40.801Z,53.90
2019-04-10T16:14:46.593Z,52.60
2019-04-10T16:20:52.984Z,51.60
2019-04-10T16:26:57.937Z,51.30
2019-04-10T16:33:02.967Z,51.80
2019-04-10T16:39:18.299Z,50.40
2019-04-10T16:45:24.689Z,50.80
2019-04-10T16:51:29.285Z,51.60
2019-04-10T16:57:34.577Z,51.00
2019-04-10T17:03:40.153Z,51.50
2019-04-10T17:16:13.835Z,51.50
2019-04-10T17:22:31.046Z,52.20
2019-04-10T17:28:25.424Z,52.70
2019-04-10T17:34:31.151Z,54.80
2019-04-10T17:40:45.834Z,55.50
2019-04-10T17:46:42.245Z,56.30
2019-04-10T17:52:47.189Z,57.10
2019-04-10T17:58:52.095Z,59.50
2019-04-10T18:04:58.014Z,63.50
2019-04-10T18:11:03.808Z,68.20
2019-04-10T18:17:09.025Z,74.90
2019-04-10T18:23:13.843Z,76.50
2019-04-10T18:29:19.073Z,81.50
2019-04-10T18:35:24.767Z,91.00
2019-04-10T18:41:30.018Z,95.80
2019-04-10T18:47:36.418Z,99.90
2019-04-10T18:53:42.318Z,99.90
2019-04-10T18:59:49.118Z,99.90
2019-04-10T19:05:58.500Z,99.90
2019-04-10T19:12:04.301Z,99.90
2019-04-10T19:18:09.313Z,99.90
2019-04-10T19:24:14.323Z,99.90
2019-04-10T19:30:21.219Z,99.90
2019-04-10T19:36:25.907Z,99.90
2019-04-10T19:42:30.472Z,99.90
2019-04-10T19:48:35.241Z,99.90
2019-04-10T19:54:40.868Z,99.90
2019-04-10T20:00:46.519Z,99.90
2019-04-10T20:06:52.232Z,99.90
2019-04-10T20:12:57.195Z,99.90
2019-04-10T20:19:01.922Z,99.90
2019-04-10T20:25:06.612Z,99.90
2019-04-10T20:31:13.131Z,99.90
2019-04-10T20:37:18.585Z,99.90
2019-04-10T20:43:23.345Z,99.90
2019-04-10T20:49:28.106Z,99.90
2019-04-10T20:55:33.474Z,99.90
2019-04-10T21:01:39.226Z,99.90
2019-04-10T21:07:43.990Z,99.90
2019-04-10T21:13:49.000Z,99.90
2019-04-10T21:19:53.796Z,99.90
2019-04-10T21:25:59.478Z,99.90
2019-04-10T21:32:11.660Z,99.90
2019-04-10T21:38:17.243Z,99.90
2019-04-10T21:44:21.926Z,99.90
2019-04-10T21:50:26.984Z,99.90
2019-04-10T21:56:31.649Z,99.90
2019-04-10T22:02:36.343Z,99.90
2019-04-10T22:08:45.691Z,99.90
2019-04-10T22:14:50.361Z,99.90
2019-04-10T22:20:57.070Z,99.90
2019-04-10T22:27:01.642Z,99.90
2019-04-10T22:33:07.509Z,99.90
2019-04-10T22:39:14.602Z,99.90
2019-04-10T22:45:29.239Z,99.90
2019-04-10T22:51:35.587Z,99.90
2019-04-10T22:57:41.604Z,99.90
2019-04-10T23:03:47.352Z,99.90
2019-04-10T23:09:52.768Z,99.90
2019-04-10T23:15:57.845Z,99.90
2019-04-10T23:22:03.124Z,99.90
2019-04-10T23:28:07.904Z,99.90
2019-04-10T23:34:12.656Z,99.90
2019-04-10T23:40:17.264Z,99.90
2019-04-10T23:46:22.233Z,99.90
2019-04-10T23:52:27.583Z,99.90
2019-04-10T23:58:32.269Z,99.90
